aviador You're here:

KARA Decoded Metar

LOUISIANA in LA, USA
Report Time2017-06-25 18:53:00
UTC Time2017-06-25 19:12:39
Flight Rules vfr VFR
Wind010° at 08 kt
W.Decomp.*RWY 34: 7.1 kt HW 3.6 kt RCW
W.Rank010° ranks 1
Current wind is below 010° avg. (8.1)
Visibility9999 m
Phenomena:N/A
Clouds:Few 024 Hf
Few 033 Hf
Expected CloudBase > 3,200 ft AGL from Temp-Dew spread
CeilingNone
Temp32°C (ISA +17)
Dew Point24°C (63% RH)
Heat Index38.0°C
QNH1020 hPa
Density Alt2,169 ft
Elevation59 ft
Report Wrong Elevation
Raw Report
KARA 251853Z 01008KT 7SM FEW024 FEW033 32/24 A3012 RMK AO2 SLP198
T03170239=

Extra information for KARA:More info

Metar Taf Metar & Taf Last 4 Metars F.Rules Stats Wind Profile Meteogram Temp Stats Airport Information Weather charts Add Link Nearby VenuesMetar ALERT Operation Metar Decoded Social comments

AIRNAV info for KARA